Terminal Aerodrome Forecast
Issued by NWS

Home | Current Version | Previous Version | Text Only | Print | Product List | Glossary On
Versions: 1 2 3 4 5 6 7 8 9 10 11 12 13 14 15 16 17 18 19 20 21 22 23 24 25 26 27 28 29 30 31 32 33 34 35 36 37 38 39 40 41 42 43 44 45 46 47 48 49 50
000
FTUS43 KMKX 282329
TAFUES
TAF
KUES 282329Z 2900/2924 14009KT P6SM BKN250
     FM290300 13005KT P6SM BKN250
     FM290800 VRB03KT P6SM BKN050
     FM291000 VRB03KT P6SM VCTS SCT025 BKN040CB
     FM291200 18005KT P6SM -SHRA BKN025
     FM291400 18006KT P6SM BKN050
     FM291600 20010KT P6SM BKN080
     FM291900 20010G17KT P6SM SHRA VCTS BKN035CB=

USA.gov is the U.S. government's official web portal to all federal, state and local government web resources and services.